Time;durP1;ratioP1;P1;durP2;ratioP2;P2;SDS_P1;SDS_P2;PMS_P1;PMS_P2;Temp;Humidity;BMP_temperature;BMP_pressure;BME280_temperature;BME280_humidity;BME280_pressure;Samples;Min_cycle;Max_cycle;Signal;HPM_P1;HPM_P2
2021/03/24 00:00:45;;;;;;;116.63;44.90;;;2.40;99.90;;;;;;5016796;28;20664;-92
2021/03/24 00:03:12;;;;;;;112.43;39.63;;;2.50;99.90;;;;;;5014852;28;20178;-92
2021/03/24 00:05:43;;;;;;;113.57;37.77;;;0.60;99.90;;;;;;5013968;28;20176;-94
2021/03/24 00:08:09;;;;;;;93.73;35.00;;;1.10;99.90;;;;;;5014075;28;20184;-94
2021/03/24 00:10:37;;;;;;;90.47;32.07;;;1.70;99.90;;;;;;4980114;28;20188;-93
2021/03/24 00:13:03;;;;;;;95.83;36.07;;;1.10;99.90;;;;;;5013284;28;20177;-94
2021/03/24 00:15:28;;;;;;;73.67;30.63;;;2.10;99.90;;;;;;4996528;28;20715;-93
2021/03/24 00:17:55;;;;;;;71.87;29.13;;;0.40;99.90;;;;;;5012829;28;20188;-91
2021/03/24 00:20:30;;;;;;;72.77;30.77;;;1.00;99.90;;;;;;5012223;28;20217;-92
2021/03/24 00:22:57;;;;;;;78.23;30.10;;;2.60;99.90;;;;;;5012331;28;20634;-92
2021/03/24 00:25:22;;;;;;;76.53;30.07;;;1.80;99.90;;;;;;5000266;28;20185;-92
2021/03/24 00:27:50;;;;;;;65.87;28.33;;;0.10;99.90;;;;;;5015934;28;20239;-92
2021/03/24 00:30:20;;;;;;;69.87;29.20;;;0.00;99.90;;;;;;5017439;28;20193;-91
2021/03/24 00:32:45;;;;;;;63.33;27.63;;;0.00;99.90;;;;;;5015694;28;20216;-91
2021/03/24 00:35:12;;;;;;;68.37;29.47;;;0.00;99.90;;;;;;5015812;28;20243;-91
2021/03/24 00:37:38;;;;;;;61.60;28.03;;;-0.10;99.90;;;;;;5016489;28;20177;-91
2021/03/24 00:40:06;;;;;;;63.63;27.30;;;0.70;99.90;;;;;;4999405;28;20727;-91
2021/03/24 00:42:32;;;;;;;65.97;29.23;;;-0.10;99.90;;;;;;5016753;28;20181;-90
2021/03/24 00:44:57;;;;;;;74.73;29.43;;;2.60;99.90;;;;;;5016915;28;20272;-91
2021/03/24 00:47:23;;;;;;;66.60;28.73;;;-0.20;99.90;;;;;;5015674;28;20247;-91
2021/03/24 00:49:49;;;;;;;70.83;28.60;;;1.50;99.90;;;;;;5016462;28;20188;-91
2021/03/24 00:52:14;;;;;;;69.80;28.20;;;0.20;99.90;;;;;;5015483;28;20187;-91
2021/03/24 00:54:40;;;;;;;66.70;28.83;;;0.60;99.90;;;;;;5016599;28;20182;-91
2021/03/24 00:57:06;;;;;;;68.67;29.33;;;1.60;99.90;;;;;;5015626;28;20177;-90
2021/03/24 00:59:32;;;;;;;68.97;30.20;;;-0.20;99.90;;;;;;5016417;28;20209;-90
2021/03/24 01:01:58;;;;;;;69.07;31.03;;;-0.30;99.90;;;;;;4998995;28;20644;-90
2021/03/24 01:04:23;;;;;;;72.73;30.07;;;0.50;99.90;;;;;;5015531;28;20195;-92
2021/03/24 01:06:49;;;;;;;74.13;30.47;;;1.00;99.90;;;;;;4998319;28;20796;-92
2021/03/24 01:09:15;;;;;;;70.97;29.43;;;1.40;99.90;;;;;;5015394;28;20194;-92
2021/03/24 01:11:41;;;;;;;67.27;30.73;;;-0.40;99.90;;;;;;5016208;28;20538;-91
2021/03/24 01:14:10;;;;;;;65.13;29.60;;;-0.30;99.90;;;;;;5015322;28;20188;-91
2021/03/24 01:16:36;;;;;;;60.87;29.60;;;-0.40;99.90;;;;;;5016319;28;20180;-93
2021/03/24 01:19:03;;;;;;;69.60;29.07;;;1.30;99.90;;;;;;5014903;28;20215;-92
2021/03/24 01:21:29;;;;;;;74.77;30.93;;;-0.40;99.90;;;;;;5016372;28;20278;-93
2021/03/24 01:23:54;;;;;;;70.73;29.50;;;-0.40;99.90;;;;;;4998777;28;20271;-92
2021/03/24 01:26:21;;;;;;;71.63;31.40;;;1.80;99.90;;;;;;4999067;28;20195;-93
2021/03/24 01:28:57;;;;;;;69.20;30.80;;;1.70;99.90;;;;;;5015292;28;20181;-94
2021/03/24 01:31:29;;;;;;;66.53;28.10;;;1.60;99.90;;;;;;5015754;28;20189;-94
2021/03/24 01:33:57;;;;;;;71.03;30.27;;;-0.50;99.90;;;;;;4999151;28;20265;-94
2021/03/24 01:36:23;;;;;;;76.30;32.97;;;-0.50;99.90;;;;;;5016679;28;20266;-94
2021/03/24 01:38:49;;;;;;;73.83;30.37;;;1.50;99.90;;;;;;5014923;28;20224;-94
2021/03/24 01:41:16;;;;;;;79.47;32.07;;;-0.60;99.90;;;;;;5015224;28;20220;-95
2021/03/24 01:43:42;;;;;;;73.10;29.90;;;-0.40;99.90;;;;;;5015621;28;20190;-94
2021/03/24 01:46:21;;;;;;;67.50;25.80;;;1.40;99.90;;;;;;5016480;28;20542;-94
2021/03/24 01:49:01;;;;;;;76.03;30.73;;;-0.80;99.90;;;;;;5014980;28;20227;-94
2021/03/24 01:51:53;;;;;;;74.87;30.63;;;0.90;99.90;;;;;;5015170;28;20186;-93
2021/03/24 01:54:29;;;;;;;75.90;29.90;;;-0.80;99.90;;;;;;5004111;28;20669;-93
2021/03/24 01:57:01;;;;;;;76.23;31.57;;;0.50;99.90;;;;;;5016105;28;20618;-93
2021/03/24 01:59:27;;;;;;;83.83;37.93;;;-0.80;99.90;;;;;;5014519;28;20208;-93
2021/03/24 02:01:54;;;;;;;110.70;42.07;;;1.70;99.90;;;;;;5014470;28;20190;-93
2021/03/24 02:04:21;;;;;;;100.60;39.97;;;0.10;99.90;;;;;;5014799;28;20225;-94
2021/03/24 02:07:04;;;;;;;116.57;46.77;;;-1.00;99.90;;;;;;5014265;28;20231;-94
2021/03/24 02:09:39;;;;;;;120.20;48.17;;;-1.00;99.90;;;;;;5014956;28;20186;-93
2021/03/24 02:12:04;;;;;;;124.07;48.63;;;-1.00;99.90;;;;;;5014782;28;20179;-93
2021/03/24 02:14:48;;;;;;;127.90;50.07;;;-1.00;99.90;;;;;;5014081;28;20666;-93
2021/03/24 02:17:16;;;;;;;95.73;41.47;;;-1.00;99.90;;;;;;5014445;28;20669;-93
2021/03/24 02:20:11;;;;;;;101.43;40.77;;;1.50;99.90;;;;;;5014046;28;20594;-93
2021/03/24 02:22:54;;;;;;;92.23;38.83;;;-1.00;99.90;;;;;;5014704;28;20181;-95
2021/03/24 02:25:24;;;;;;;91.40;39.10;;;-1.00;99.90;;;;;;5014760;28;20184;-94
2021/03/24 02:27:55;;;;;;;91.90;38.33;;;1.20;99.90;;;;;;5014229;28;20185;-95
2021/03/24 02:30:27;;;;;;;85.57;36.53;;;-0.10;99.90;;;;;;5014474;28;20192;-92
2021/03/24 02:33:14;;;;;;;98.90;38.53;;;-1.10;99.90;;;;;;5013577;28;20649;-92
2021/03/24 02:35:50;;;;;;;90.83;36.07;;;0.40;99.90;;;;;;5013874;28;20197;-92
2021/03/24 02:38:18;;;;;;;96.10;37.30;;;0.80;99.90;;;;;;5014729;28;20185;-91
2021/03/24 02:40:46;;;;;;;89.47;36.90;;;1.20;99.90;;;;;;4997164;28;20205;-93
2021/03/24 02:43:15;;;;;;;101.07;39.23;;;0.30;99.90;;;;;;4997463;28;20279;-94
2021/03/24 02:45:45;;;;;;;88.33;36.80;;;1.50;99.90;;;;;;5013652;28;20186;-94
2021/03/24 02:48:20;;;;;;;98.27;38.00;;;1.00;99.90;;;;;;5013888;28;20185;-93
2021/03/24 02:50:46;;;;;;;97.43;36.60;;;-1.20;99.90;;;;;;5015150;28;20203;-90
2021/03/24 02:53:14;;;;;;;84.50;35.63;;;0.80;99.90;;;;;;4997181;28;20186;-93
2021/03/24 02:55:42;;;;;;;90.23;35.87;;;0.90;99.90;;;;;;4997551;28;20640;-93
2021/03/24 02:58:09;;;;;;;89.93;35.80;;;-1.30;99.90;;;;;;5014374;28;20205;-93
2021/03/24 03:00:35;;;;;;;86.23;38.10;;;-1.30;99.90;;;;;;5014171;28;20213;-92
2021/03/24 03:03:11;;;;;;;96.93;38.03;;;-1.30;99.90;;;;;;5014101;28;20267;-93
2021/03/24 03:05:39;;;;;;;90.17;37.93;;;-1.40;99.90;;;;;;5012774;28;20185;-94
2021/03/24 03:08:22;;;;;;;87.33;36.77;;;0.40;99.90;;;;;;5012949;28;20201;-94
2021/03/24 03:10:50;;;;;;;94.50;37.87;;;0.90;99.90;;;;;;5013409;28;20169;-89
2021/03/24 03:13:30;;;;;;;88.40;37.40;;;-1.40;99.90;;;;;;5013359;28;20197;-93
2021/03/24 03:16:11;;;;;;;88.57;37.63;;;-1.40;99.90;;;;;;5014066;28;20217;-93
2021/03/24 03:19:03;;;;;;;96.20;39.07;;;-1.40;99.90;;;;;;5014255;28;20174;-93
2021/03/24 03:21:33;;;;;;;95.80;38.37;;;-1.50;99.90;;;;;;4991270;28;20717;-93
2021/03/24 03:24:03;;;;;;;93.93;39.30;;;0.40;99.90;;;;;;5013137;28;20533;-93
2021/03/24 03:26:32;;;;;;;94.40;40.97;;;-1.60;99.90;;;;;;5014180;28;20165;-93
2021/03/24 03:29:06;;;;;;;99.53;40.13;;;-2.60;99.90;;;;;;5013091;28;20678;-94
2021/03/24 03:31:34;;;;;;;95.43;41.90;;;0.60;99.90;;;;;;5013022;28;20174;-93
2021/03/24 03:34:01;;;;;;;98.47;43.03;;;-1.00;99.90;;;;;;5012631;28;20191;-92
2021/03/24 03:36:30;;;;;;;110.60;46.33;;;-1.70;99.90;;;;;;5012985;28;20174;-93
2021/03/24 03:38:58;;;;;;;103.23;45.13;;;1.20;99.90;;;;;;5013665;28;20209;-93
2021/03/24 03:41:25;;;;;;;110.40;45.13;;;0.30;99.90;;;;;;5012888;28;20625;-93
2021/03/24 03:43:53;;;;;;;113.73;45.07;;;0.40;99.90;;;;;;5012930;28;20189;-93
2021/03/24 03:46:25;;;;;;;105.10;44.37;;;0.20;99.90;;;;;;5012953;28;20268;-93
2021/03/24 03:48:50;;;;;;;118.63;47.33;;;0.50;99.90;;;;;;5013890;28;20290;-92
2021/03/24 03:51:56;;;;;;;124.77;47.77;;;-1.10;99.90;;;;;;5013451;28;20263;-93
2021/03/24 03:54:49;;;;;;;116.50;47.00;;;-1.80;99.90;;;;;;5013788;28;20212;-93
2021/03/24 03:57:48;;;;;;;115.83;46.13;;;-1.90;99.90;;;;;;5013480;28;20206;-93
2021/03/24 04:00:29;;;;;;;114.50;45.73;;;-1.90;99.90;;;;;;5012309;28;20245;-92
2021/03/24 04:03:09;;;;;;;126.90;50.53;;;-1.90;99.90;;;;;;5013736;28;20639;-91
2021/03/24 04:05:50;;;;;;;117.63;49.37;;;0.70;99.90;;;;;;5013512;28;20186;-94
2021/03/24 04:08:30;;;;;;;128.07;49.93;;;-1.90;99.90;;;;;;5011986;28;20283;-93
2021/03/24 04:10:59;;;;;;;131.67;49.83;;;-1.80;99.90;;;;;;5013456;28;20162;-93
2021/03/24 04:13:28;;;;;;;136.23;52.60;;;-0.20;99.90;;;;;;5012183;28;20188;-92
2021/03/24 04:15:56;;;;;;;149.20;58.00;;;-0.20;99.90;;;;;;5013388;28;20176;-93
2021/03/24 04:18:35;;;;;;;191.80;68.73;;;0.40;99.90;;;;;;5029806;28;20276;-91
2021/03/24 04:21:03;;;;;;;202.03;66.63;;;-2.00;99.90;;;;;;5033055;28;20186;-91
2021/03/24 04:23:33;;;;;;;211.33;70.40;;;-2.00;99.90;;;;;;5031667;28;20728;-91
2021/03/24 04:26:14;;;;;;;210.30;73.30;;;-2.00;99.90;;;;;;5032717;28;20311;-89
2021/03/24 04:28:44;;;;;;;216.77;72.50;;;-2.00;99.90;;;;;;5018401;28;20187;-91
2021/03/24 04:31:13;;;;;;;260.23;97.22;;;-0.70;99.90;;;;;;5028117;28;20529;-91
2021/03/24 04:33:39;;;;;;;234.33;81.97;;;-0.60;99.90;;;;;;5029906;28;20650;-93
2021/03/24 04:36:29;;;;;;;233.07;76.73;;;0.80;99.90;;;;;;5030843;28;20251;-92
2021/03/24 04:39:01;;;;;;;212.80;74.63;;;-1.00;99.90;;;;;;5031045;28;20697;-91
2021/03/24 04:41:31;;;;;;;233.63;76.00;;;-0.30;99.90;;;;;;5048409;28;20166;-89
2021/03/24 04:44:10;;;;;;;228.30;79.43;;;-0.60;99.90;;;;;;5047999;28;20179;-90
2021/03/24 04:46:40;;;;;;;213.60;73.80;;;-2.00;99.90;;;;;;5020219;28;20266;-88
2021/03/24 04:49:20;;;;;;;224.93;77.97;;;-0.10;99.90;;;;;;5026889;28;20182;-89
2021/03/24 04:51:47;;;;;;;235.73;75.93;;;-1.90;99.90;;;;;;5027762;28;20251;-88
2021/03/24 04:54:22;;;;;;;196.53;73.23;;;0.10;99.90;;;;;;5028238;28;20173;-88
2021/03/24 04:56:55;;;;;;;214.93;75.33;;;-1.70;99.90;;;;;;5018426;28;20667;-90
2021/03/24 04:59:27;;;;;;;201.00;70.67;;;-1.90;99.90;;;;;;5029185;28;20692;-89
2021/03/24 05:01:58;;;;;;;195.73;71.20;;;0.50;99.90;;;;;;5029116;28;20208;-91
2021/03/24 05:04:42;;;;;;;210.53;67.77;;;-1.10;99.90;;;;;;5025443;28;20219;-90
2021/03/24 05:07:19;;;;;;;202.77;69.07;;;-1.70;99.90;;;;;;5026485;28;20875;-90
2021/03/24 05:09:46;;;;;;;205.27;72.60;;;-1.70;99.90;;;;;;5029000;28;20185;-90
2021/03/24 05:12:38;;;;;;;217.07;77.77;;;-1.60;99.90;;;;;;5030768;28;20283;-89
2021/03/24 05:15:26;;;;;;;214.97;75.47;;;1.10;99.90;;;;;;5029467;28;20656;-91
2021/03/24 05:17:55;;;;;;;207.87;73.53;;;-1.50;99.90;;;;;;5031887;28;20181;-90
2021/03/24 05:20:27;;;;;;;207.27;72.60;;;-1.50;99.90;;;;;;5029800;28;20575;-89
2021/03/24 05:22:53;;;;;;;202.73;75.20;;;-1.30;99.90;;;;;;5030575;28;20215;-90
2021/03/24 05:25:29;;;;;;;206.13;74.27;;;-0.20;99.90;;;;;;5031668;28;20667;-89
2021/03/24 05:28:16;;;;;;;203.40;75.47;;;-1.30;99.90;;;;;;5031098;28;20282;-90
2021/03/24 05:30:50;;;;;;;181.23;72.50;;;-1.30;99.90;;;;;;5031183;28;20198;-91
2021/03/24 05:33:31;;;;;;;181.43;71.73;;;1.10;99.90;;;;;;5033298;28;20184;-90
2021/03/24 05:35:57;;;;;;;169.00;70.53;;;-1.30;99.90;;;;;;5031147;28;20211;-92
2021/03/24 05:38:31;;;;;;;162.27;66.90;;;0.10;99.90;;;;;;5031918;28;20529;-94
2021/03/24 05:41:07;;;;;;;153.90;65.83;;;-0.90;99.90;;;;;;5029618;28;20286;-87
2021/03/24 05:43:54;;;;;;;143.77;67.87;;;-0.50;99.90;;;;;;5033189;28;20241;-92
2021/03/24 05:46:35;;;;;;;155.20;70.07;;;-0.70;99.90;;;;;;5025090;28;20196;-91
2021/03/24 05:49:19;;;;;;;153.90;70.43;;;-0.60;99.90;;;;;;5032031;28;20195;-91
2021/03/24 05:52:06;;;;;;;159.97;76.80;;;-0.40;99.90;;;;;;5031747;28;20195;-92
2021/03/24 05:55:02;;;;;;;165.93;79.50;;;-2.30;99.90;;;;;;5029929;28;20604;-92
2021/03/24 05:57:55;;;;;;;164.20;77.30;;;-0.10;99.90;;;;;;5037299;28;20217;-92
2021/03/24 06:00:39;;;;;;;166.27;77.80;;;-0.10;99.90;;;;;;5058831;28;20230;-93
2021/03/24 06:03:33;;;;;;;159.10;74.60;;;0.10;99.90;;;;;;5051798;28;20283;-92
2021/03/24 06:06:01;;;;;;;118.67;58.60;;;0.60;99.90;;;;;;5045695;28;20229;-92
2021/03/24 06:08:39;;;;;;;85.10;41.90;;;1.20;99.90;;;;;;5053606;28;20194;-90
2021/03/24 06:11:42;;;;;;;77.47;38.83;;;0.70;99.90;;;;;;5055570;28;20184;-88
2021/03/24 06:14:38;;;;;;;81.13;37.67;;;0.60;99.90;;;;;;5046726;28;20189;-87
2021/03/24 06:17:32;;;;;;;90.93;42.93;;;0.80;99.90;;;;;;5043381;28;20290;-92
2021/03/24 06:20:21;;;;;;;95.27;43.53;;;1.00;99.90;;;;;;5033233;28;20224;-88
2021/03/24 06:23:18;;;;;;;104.50;48.00;;;2.50;99.90;;;;;;5038812;28;20212;-93
2021/03/24 06:25:50;;;;;;;97.00;44.23;;;2.00;99.90;;;;;;5047059;28;20184;-86
2021/03/24 06:28:43;;;;;;;93.43;41.80;;;1.30;99.90;;;;;;5056488;28;20235;-92
2021/03/24 06:31:43;;;;;;;83.20;35.70;;;1.40;99.90;;;;;;5054345;28;20181;-91
2021/03/24 06:34:40;;;;;;;64.23;32.37;;;1.50;99.90;;;;;;5031622;28;20187;-88
2021/03/24 06:37:43;;;;;;;70.83;31.50;;;1.60;99.90;;;;;;5039551;28;20193;-94
2021/03/24 06:40:47;;;;;;;67.43;31.70;;;1.60;99.90;;;;;;5034046;28;20260;-91
2021/03/24 06:43:24;;;;;;;65.77;31.87;;;1.80;99.90;;;;;;4980310;28;20658;-90
2021/03/24 06:46:26;;;;;;;53.77;26.40;;;2.00;99.90;;;;;;4993788;28;20260;-91
2021/03/24 06:49:23;;;;;;;56.17;26.80;;;2.10;99.90;;;;;;5036250;28;20195;-91
2021/03/24 06:52:10;;;;;;;55.40;26.70;;;2.20;99.90;;;;;;5023099;28;20234;-92
2021/03/24 06:54:54;;;;;;;59.67;29.50;;;2.30;99.90;;;;;;5013183;28;20196;-92
2021/03/24 06:57:35;;;;;;;63.50;31.13;;;2.50;99.90;;;;;;5013039;28;20213;-92
2021/03/24 07:00:30;;;;;;;52.00;25.73;;;2.60;99.90;;;;;;5017452;28;20205;-91
2021/03/24 07:03:21;;;;;;;48.67;23.33;;;2.70;99.90;;;;;;5049735;28;20250;-90
2021/03/24 07:06:28;;;;;;;45.57;23.03;;;2.80;99.90;;;;;;5031046;28;20232;-92
2021/03/24 07:09:06;;;;;;;47.60;24.17;;;2.90;99.90;;;;;;4976337;28;20197;-92
2021/03/24 07:11:56;;;;;;;48.70;23.10;;;3.00;99.90;;;;;;4987288;28;20194;-90
2021/03/24 07:14:40;;;;;;;47.20;21.10;;;3.20;99.90;;;;;;5015955;28;20204;-95
2021/03/24 07:17:29;;;;;;;46.40;20.37;;;3.30;99.90;;;;;;5034821;28;20589;-94
2021/03/24 07:20:30;;;;;;;36.67;17.50;;;3.40;99.90;;;;;;5035273;28;20280;-93
2021/03/24 07:23:14;;;;;;;33.60;16.10;;;3.50;99.90;;;;;;5038996;28;20589;-95
2021/03/24 07:25:59;;;;;;;47.90;22.07;;;3.60;99.90;;;;;;5039193;28;20189;-96
2021/03/24 07:28:30;;;;;;;34.77;13.87;;;3.70;99.90;;;;;;5034968;28;20186;-95
2021/03/24 07:30:59;;;;;;;20.43;10.40;;;3.80;96.80;;;;;;5033858;28;20232;-93
2021/03/24 07:33:27;;;;;;;22.33;9.40;;;3.80;86.60;;;;;;5036199;28;20204;-93
2021/03/24 07:36:07;;;;;;;25.47;10.30;;;3.90;88.50;;;;;;5050204;28;20182;-93
2021/03/24 07:38:38;;;;;;;20.90;9.70;;;4.00;88.90;;;;;;5032341;28;20268;-92
2021/03/24 07:41:33;;;;;;;19.30;8.80;;;4.00;82.60;;;;;;5045037;28;20223;-90
2021/03/24 07:44:30;;;;;;;27.47;10.07;;;4.00;79.50;;;;;;5023938;28;20172;-91
2021/03/24 07:47:17;;;;;;;18.67;7.87;;;4.00;77.00;;;;;;5020344;28;20632;-90
2021/03/24 07:50:19;;;;;;;17.10;7.60;;;4.00;73.20;;;;;;5031932;28;20189;-91
2021/03/24 07:52:45;;;;;;;17.03;7.27;;;4.10;74.20;;;;;;5032989;28;20172;-91
2021/03/24 07:55:30;;;;;;;18.03;8.17;;;4.30;73.30;;;;;;5028634;28;20679;-90
2021/03/24 07:58:18;;;;;;;15.10;6.70;;;4.40;68.80;;;;;;5023576;28;20535;-89
2021/03/24 08:01:10;;;;;;;23.20;9.57;;;4.50;72.40;;;;;;5024319;28;20713;-90
2021/03/24 08:04:02;;;;;;;15.00;7.27;;;4.60;71.70;;;;;;5030670;28;20191;-91
2021/03/24 08:06:39;;;;;;;16.03;7.93;;;4.60;67.50;;;;;;5005603;28;20238;-91
2021/03/24 08:09:19;;;;;;;23.87;9.60;;;4.70;66.00;;;;;;5023068;28;20179;-95
2021/03/24 08:12:22;;;;;;;27.00;11.30;;;4.80;63.30;;;;;;5031133;28;20236;-92
2021/03/24 08:14:56;;;;;;;21.20;8.87;;;4.80;62.30;;;;;;5022917;28;20200;-92
2021/03/24 08:17:41;;;;;;;23.77;10.97;;;5.00;61.80;;;;;;5022850;28;20184;-92
2021/03/24 08:20:35;;;;;;;19.70;8.50;;;5.10;63.00;;;;;;5043666;28;20592;-92
2021/03/24 08:23:52;;;;;;;14.33;5.23;;;5.20;62.20;;;;;;5024544;28;20196;-94
2021/03/24 08:26:33;;;;;;;11.53;5.40;;;5.30;60.90;;;;;;5008271;28;20199;-91
2021/03/24 08:29:16;;;;;;;11.30;5.70;;;5.40;61.40;;;;;;5029321;28;20559;-89
2021/03/24 08:31:41;;;;;;;10.37;5.37;;;5.40;59.20;;;;;;5024868;28;20539;-89
2021/03/24 08:34:09;;;;;;;15.00;5.70;;;5.30;59.50;;;;;;5023762;28;20209;-91
2021/03/24 08:36:38;;;;;;;12.83;4.53;;;5.40;59.00;;;;;;5032300;28;20181;-90
2021/03/24 08:39:31;;;;;;;16.17;5.80;;;5.50;56.80;;;;;;5027786;28;20220;-91
2021/03/24 08:42:25;;;;;;;31.97;12.73;;;5.50;58.40;;;;;;5032341;28;20227;-91
2021/03/24 08:45:09;;;;;;;13.73;5.47;;;5.40;57.40;;;;;;5025336;28;20184;-91
2021/03/24 08:47:41;;;;;;;12.27;4.47;;;5.40;56.40;;;;;;5025978;28;20199;-93
2021/03/24 08:50:14;;;;;;;19.30;6.97;;;5.30;55.80;;;;;;5035617;28;20197;-89
2021/03/24 08:52:57;;;;;;;7.27;4.13;;;5.30;57.00;;;;;;5038521;28;20181;-91
2021/03/24 08:55:48;;;;;;;12.50;4.53;;;5.50;55.50;;;;;;5037518;28;20188;-90
2021/03/24 08:58:28;;;;;;;5.57;3.20;;;5.60;56.00;;;;;;5035047;28;20197;-91
2021/03/24 09:01:25;;;;;;;9.87;4.13;;;5.50;55.10;;;;;;5014207;28;20697;-90
2021/03/24 09:04:12;;;;;;;5.73;2.87;;;5.70;56.20;;;;;;5032579;28;20202;-92
2021/03/24 09:06:48;;;;;;;9.50;3.10;;;5.90;56.50;;;;;;5037589;28;20326;-91
2021/03/24 09:09:44;;;;;;;12.67;3.90;;;6.10;55.50;;;;;;5034453;28;20191;-89
2021/03/24 09:12:28;;;;;;;8.20;4.13;;;6.30;54.20;;;;;;5033260;28;20191;-89
2021/03/24 09:15:15;;;;;;;5.03;2.67;;;6.50;55.00;;;;;;5033619;28;20192;-90
2021/03/24 09:17:59;;;;;;;7.13;3.23;;;6.60;54.50;;;;;;5034694;28;20180;-88
2021/03/24 09:20:54;;;;;;;10.90;3.47;;;6.70;53.30;;;;;;5034855;28;20210;-91
2021/03/24 09:23:41;;;;;;;6.87;3.53;;;6.80;53.10;;;;;;5034297;28;20653;-91
2021/03/24 09:26:30;;;;;;;9.17;3.33;;;6.60;51.60;;;;;;5036038;28;20291;-89
2021/03/24 09:29:11;;;;;;;6.33;3.37;;;6.50;54.60;;;;;;5036021;28;20590;-92
2021/03/24 09:31:45;;;;;;;11.40;4.40;;;6.60;53.00;;;;;;5034975;28;20299;-91
2021/03/24 09:34:32;;;;;;;23.00;7.43;;;6.70;54.20;;;;;;5035489;28;20188;-91
2021/03/24 09:37:02;;;;;;;12.43;4.83;;;6.80;54.50;;;;;;5036089;28;20168;-92
2021/03/24 09:39:51;;;;;;;7.70;3.80;;;6.70;53.20;;;;;;5035737;28;20208;-90
2021/03/24 09:42:34;;;;;;;10.17;3.63;;;6.70;55.50;;;;;;5035809;28;20675;-91
2021/03/24 09:45:12;;;;;;;9.27;3.90;;;6.90;54.70;;;;;;5035580;28;20195;-92
2021/03/24 09:48:08;;;;;;;7.83;3.70;;;7.20;54.70;;;;;;5034028;28;20226;-92
2021/03/24 09:50:58;;;;;;;6.77;3.77;;;7.40;54.70;;;;;;5034034;28;20698;-91
2021/03/24 09:53:27;;;;;;;12.20;4.03;;;7.60;54.20;;;;;;5034531;28;20267;-90
2021/03/24 09:55:55;;;;;;;12.47;5.20;;;7.70;53.60;;;;;;5033776;28;20187;-92
2021/03/24 09:58:30;;;;;;;13.87;4.00;;;7.70;52.50;;;;;;5034654;28;20180;-90
2021/03/24 10:01:33;;;;;;;7.63;3.77;;;7.50;53.00;;;;;;5035251;28;20242;-89
2021/03/24 10:04:19;;;;;;;6.40;3.20;;;7.60;52.90;;;;;;5033570;28;20180;-90
2021/03/24 10:06:58;;;;;;;7.13;3.17;;;7.80;53.40;;;;;;5033500;28;20270;-92
2021/03/24 10:09:52;;;;;;;7.90;4.33;;;7.80;53.60;;;;;;5034613;28;20521;-91
2021/03/24 10:12:40;;;;;;;9.57;4.03;;;8.10;54.00;;;;;;5021725;28;20193;-90
2021/03/24 10:15:08;;;;;;;8.93;4.00;;;7.50;51.20;;;;;;5033937;28;20184;-91
2021/03/24 10:17:53;;;;;;;5.77;3.73;;;7.50;52.90;;;;;;5033934;28;20254;-89
2021/03/24 10:20:29;;;;;;;4.97;2.73;;;8.00;55.20;;;;;;5033646;28;20738;-89
2021/03/24 10:23:17;;;;;;;8.07;3.50;;;8.30;53.90;;;;;;5033702;28;20180;-93
2021/03/24 10:25:44;;;;;;;11.47;2.93;;;8.60;51.90;;;;;;5035062;28;20173;-93
2021/03/24 10:28:12;;;;;;;6.43;3.10;;;8.90;51.10;;;;;;5032999;28;20223;-85
2021/03/24 10:30:55;;;;;;;6.77;3.13;;;9.00;49.40;;;;;;5034394;28;20172;-91
2021/03/24 10:33:39;;;;;;;9.80;3.23;;;9.00;49.00;;;;;;5034451;28;20242;-89
2021/03/24 10:36:17;;;;;;;9.77;4.40;;;9.10;50.50;;;;;;5034741;28;20172;-91
2021/03/24 10:38:52;;;;;;;6.20;3.40;;;9.10;49.80;;;;;;5033482;28;20592;-93
2021/03/24 10:41:47;;;;;;;4.60;3.00;;;9.10;49.70;;;;;;5033557;28;20598;-92
2021/03/24 10:44:22;;;;;;;7.60;3.73;;;9.20;50.50;;;;;;5033056;28;20187;-89
2021/03/24 10:46:47;;;;;;;6.73;3.33;;;9.00;48.00;;;;;;5032968;28;20175;-90
2021/03/24 10:49:23;;;;;;;7.33;3.33;;;8.60;48.60;;;;;;5033075;28;20180;-90
2021/03/24 10:52:00;;;;;;;8.40;3.57;;;8.70;49.70;;;;;;5034275;28;20172;-88
2021/03/24 10:54:33;;;;;;;8.43;4.57;;;8.60;50.20;;;;;;5033901;28;20179;-88
2021/03/24 10:57:29;;;;;;;5.57;3.70;;;8.50;51.00;;;;;;5034003;28;20172;-90
2021/03/24 11:00:22;;;;;;;5.93;2.90;;;8.50;51.60;;;;;;5032874;28;20679;-88
2021/03/24 11:02:56;;;;;;;9.13;3.57;;;8.60;51.10;;;;;;5034022;28;20183;-87
2021/03/24 11:05:37;;;;;;;4.60;3.23;;;8.70;50.50;;;;;;5034389;28;20263;-90
2021/03/24 11:08:25;;;;;;;4.50;2.73;;;9.00;49.90;;;;;;5033242;28;20246;-91
2021/03/24 11:11:06;;;;;;;5.77;3.27;;;8.80;48.70;;;;;;5033042;28;20192;-88
2021/03/24 11:13:46;;;;;;;12.67;4.40;;;9.00;51.00;;;;;;5033704;28;20634;-90
2021/03/24 11:16:28;;;;;;;7.40;4.07;;;9.40;50.50;;;;;;5034010;28;20168;-90
2021/03/24 11:19:16;;;;;;;7.73;4.60;;;9.70;50.70;;;;;;5032295;28;20219;-90
2021/03/24 11:21:42;;;;;;;7.97;4.93;;;9.60;48.00;;;;;;5033516;28;20220;-89
2021/03/24 11:24:19;;;;;;;16.73;6.97;;;9.30;50.60;;;;;;5034074;28;20179;-91
2021/03/24 11:27:05;;;;;;;9.20;4.67;;;9.50;50.90;;;;;;5032815;28;20210;-92
2021/03/24 11:29:32;;;;;;;7.43;4.10;;;9.70;50.60;;;;;;5033378;28;20216;-91
2021/03/24 11:32:26;;;;;;;9.50;4.50;;;9.80;50.20;;;;;;5032017;28;20231;-89
2021/03/24 11:35:11;;;;;;;7.30;4.10;;;9.70;51.00;;;;;;5023900;28;20196;-89
2021/03/24 11:37:45;;;;;;;9.83;5.10;;;9.90;51.00;;;;;;5032336;28;20187;-91
2021/03/24 11:40:33;;;;;;;8.30;4.20;;;9.90;49.80;;;;;;5033597;28;20291;-92
2021/03/24 11:43:14;;;;;;;6.40;3.80;;;9.70;49.60;;;;;;5023128;28;20279;-90
2021/03/24 11:45:40;;;;;;;10.10;4.10;;;9.40;50.20;;;;;;5032148;28;20168;-89
2021/03/24 11:48:16;;;;;;;6.27;4.03;;;9.00;50.20;;;;;;5033221;28;20198;-90
2021/03/24 11:51:26;;;;;;;5.73;3.80;;;8.70;49.80;;;;;;5033359;28;20639;-91
2021/03/24 11:54:12;;;;;;;8.97;3.30;;;8.30;51.10;;;;;;5029828;28;20192;-91
2021/03/24 11:57:05;;;;;;;9.67;3.20;;;8.70;52.30;;;;;;5032634;28;20215;-90
2021/03/24 12:00:08;;;;;;;11.27;4.23;;;8.90;50.50;;;;;;5032042;28;20207;-91
2021/03/24 12:02:52;;;;;;;5.17;3.30;;;9.00;49.50;;;;;;5032339;28;20219;-91
2021/03/24 12:05:20;;;;;;;8.27;3.63;;;8.80;49.90;;;;;;5032369;28;20188;-91
2021/03/24 12:07:52;;;;;;;7.93;4.13;;;8.90;51.40;;;;;;5034077;28;20255;-88
2021/03/24 12:10:21;;;;;;;5.43;3.33;;;9.20;51.80;;;;;;5043919;28;20191;-90
2021/03/24 12:12:59;;;;;;;9.27;3.70;;;9.60;52.30;;;;;;5045388;28;20188;-90
2021/03/24 12:15:31;;;;;;;12.60;3.53;;;9.90;51.40;;;;;;5033604;28;20560;-87
2021/03/24 12:18:23;;;;;;;6.13;3.93;;;10.00;50.40;;;;;;5026703;28;20196;-88
2021/03/24 12:20:57;;;;;;;8.23;4.27;;;10.20;49.70;;;;;;5057892;28;20223;-89
2021/03/24 12:23:28;;;;;;;15.13;3.93;;;10.30;50.00;;;;;;5077372;28;20183;-87
2021/03/24 12:25:57;;;;;;;9.40;4.47;;;10.30;49.90;;;;;;5060719;28;20168;-89
2021/03/24 12:28:27;;;;;;;6.73;3.60;;;10.50;50.50;;;;;;5045959;28;20193;-91
2021/03/24 12:31:04;;;;;;;8.00;3.60;;;10.50;49.50;;;;;;5024221;28;20185;-90
2021/03/24 12:33:31;;;;;;;5.77;3.53;;;10.40;48.00;;;;;;5034310;28;20169;-89
2021/03/24 12:36:21;;;;;;;6.90;3.43;;;10.10;49.60;;;;;;5041075;28;20185;-89
2021/03/24 12:38:52;;;;;;;5.57;3.17;;;10.00;51.20;;;;;;5040290;28;20188;-90
2021/03/24 12:41:44;;;;;;;9.93;3.80;;;10.30;51.70;;;;;;5029298;28;20212;-90
2021/03/24 12:44:25;;;;;;;7.32;3.88;;;10.90;49.30;;;;;;5012866;28;20228;-91
2021/03/24 12:46:54;;;;;;;12.87;3.50;;;10.90;48.90;;;;;;5017265;28;20181;-89
2021/03/24 12:49:25;;;;;;;7.50;3.67;;;10.90;48.70;;;;;;5014955;28;20339;-91
2021/03/24 12:52:03;;;;;;;7.27;3.50;;;11.20;50.20;;;;;;5017028;28;20188;-91
2021/03/24 12:54:38;;;;;;;6.10;3.22;;;11.80;48.80;;;;;;5020246;28;20181;-92
2021/03/24 12:57:20;;;;;;;10.65;4.05;;;11.70;47.00;;;;;;5021924;28;20544;-90
2021/03/24 13:00:02;;;;;;;10.45;5.10;;;12.00;48.70;;;;;;5032540;28;20208;-92
2021/03/24 13:02:40;;;;;;;7.63;3.05;;;12.40;48.50;;;;;;5029663;28;20254;-92
2021/03/24 13:05:24;;;;;;;9.13;4.38;;;12.30;45.80;;;;;;5027102;28;20192;-90
2021/03/24 13:08:17;;;;;;;13.52;6.70;;;12.30;46.80;;;;;;5025656;28;20269;-91
2021/03/24 13:11:09;;;;;;;10.00;4.25;;;12.40;46.90;;;;;;5028020;28;20185;-90
2021/03/24 13:13:50;;;;;;;7.20;3.92;;;12.60;47.70;;;;;;5032371;28;20203;-91
2021/03/24 13:16:19;;;;;;;4.80;3.15;;;12.70;47.00;;;;;;5029732;28;20180;-91
2021/03/24 13:19:10;;;;;;;7.35;3.70;;;11.60;48.30;;;;;;5027939;28;20294;-89
2021/03/24 13:22:15;;;;;;;7.28;4.50;;;11.40;48.40;;;;;;5028560;28;20185;-90
2021/03/24 13:25:18;;;;;;;8.77;3.70;;;10.40;50.60;;;;;;4998269;28;20199;-91
2021/03/24 13:28:23;;;;;;;8.57;4.67;;;10.20;52.00;;;;;;5028334;28;20186;-92
2021/03/24 13:31:13;;;;;;;6.03;3.63;;;10.60;51.10;;;;;;5032586;28;20215;-90
2021/03/24 13:33:56;;;;;;;4.45;2.83;;;11.70;51.40;;;;;;5027775;28;20189;-90
2021/03/24 13:36:55;;;;;;;8.60;3.03;;;12.30;48.40;;;;;;5030136;28;20184;-90